Time;durP1;ratioP1;P1;durP2;ratioP2;P2;SDS_P1;SDS_P2;PMS_P1;PMS_P2;Temp;Humidity;BMP_temperature;BMP_pressure;BME280_temperature;BME280_humidity;BME280_pressure;Samples;Min_cycle;Max_cycle;Signal;HPM_P1;HPM_P2
2023/12/13 00:01:43;;;;;;;39.55;25.15;;;10.80;99.90;;;;;;5109250;28;20024;-72
2023/12/13 00:04:09;;;;;;;36.10;22.92;;;10.80;99.90;;;;;;5109898;28;20371;-73
2023/12/13 00:06:34;;;;;;;30.88;21.92;;;10.80;99.90;;;;;;5109569;28;20008;-72
2023/12/13 00:09:03;;;;;;;30.83;21.08;;;10.80;99.90;;;;;;5109920;28;20081;-72
2023/12/13 00:11:29;;;;;;;30.20;18.70;;;10.90;99.90;;;;;;5110331;28;20436;-72
2023/12/13 00:13:55;;;;;;;30.40;18.95;;;10.90;99.90;;;;;;5113448;28;20023;-72
2023/12/13 00:16:21;;;;;;;27.55;16.92;;;10.90;99.90;;;;;;5117221;27;20016;-73
2023/12/13 00:18:47;;;;;;;25.90;17.35;;;11.00;99.90;;;;;;5122237;27;20036;-72
2023/12/13 00:21:15;;;;;;;26.83;16.42;;;11.00;99.90;;;;;;5132009;27;20026;-73
2023/12/13 00:23:48;;;;;;;26.10;15.48;;;11.10;99.90;;;;;;5135367;27;20035;-72
2023/12/13 00:26:15;;;;;;;26.50;15.60;;;11.10;99.90;;;;;;5135367;27;20050;-73
2023/12/13 00:28:41;;;;;;;27.45;14.75;;;11.10;99.90;;;;;;5135047;27;20424;-72
2023/12/13 00:31:08;;;;;;;24.42;13.93;;;11.20;99.90;;;;;;5132636;27;20027;-72
2023/12/13 00:33:34;;;;;;;25.48;14.20;;;11.20;99.90;;;;;;5134988;27;20474;-72
2023/12/13 00:36:00;;;;;;;23.95;13.57;;;11.10;99.90;;;;;;5124897;27;20065;-73
2023/12/13 00:38:26;;;;;;;25.75;13.85;;;11.20;99.90;;;;;;5130240;27;20474;-73
2023/12/13 00:40:51;;;;;;;25.40;15.77;;;11.20;99.90;;;;;;5135339;27;20019;-72
2023/12/13 00:43:17;;;;;;;22.85;13.48;;;11.20;99.90;;;;;;5134828;27;20026;-73
2023/12/13 00:45:43;;;;;;;25.90;14.63;;;11.20;99.90;;;;;;5134616;27;20015;-73
2023/12/13 00:48:09;;;;;;;21.42;14.02;;;11.20;99.90;;;;;;5134717;27;20069;-72
2023/12/13 00:50:35;;;;;;;23.42;13.15;;;11.20;99.90;;;;;;5117488;27;20065;-73
2023/12/13 00:53:01;;;;;;;21.02;12.68;;;11.10;99.90;;;;;;5102997;27;20031;-73
2023/12/13 00:55:28;;;;;;;21.67;12.82;;;11.20;99.90;;;;;;5134413;27;20022;-72
2023/12/13 00:57:53;;;;;;;23.38;12.63;;;11.20;99.90;;;;;;5120361;27;20019;-72
2023/12/13 01:00:20;;;;;;;25.50;12.80;;;11.20;99.90;;;;;;5127127;27;20023;-72
2023/12/13 01:02:45;;;;;;;22.52;12.57;;;11.20;99.90;;;;;;5116551;27;20107;-72
2023/12/13 01:05:11;;;;;;;22.20;12.82;;;11.20;99.90;;;;;;5127748;27;20112;-72
2023/12/13 01:07:37;;;;;;;20.17;13.15;;;11.20;99.90;;;;;;5127773;27;20549;-72
2023/12/13 01:10:04;;;;;;;22.73;12.48;;;11.20;99.90;;;;;;5127791;27;20520;-72
2023/12/13 01:12:30;;;;;;;22.50;13.20;;;11.30;99.90;;;;;;5116967;27;20028;-72
2023/12/13 01:14:56;;;;;;;23.42;13.40;;;11.30;99.90;;;;;;5118872;27;20485;-72
2023/12/13 01:17:22;;;;;;;21.83;13.98;;;11.30;99.90;;;;;;5130404;27;20102;-72
2023/12/13 01:19:49;;;;;;;22.63;12.52;;;11.30;99.90;;;;;;5133910;27;20478;-72
2023/12/13 01:22:14;;;;;;;19.80;12.38;;;11.30;99.90;;;;;;5133953;27;20513;-72
2023/12/13 01:24:40;;;;;;;25.38;13.02;;;11.30;99.90;;;;;;5131639;27;20062;-72
2023/12/13 01:27:06;;;;;;;20.67;11.98;;;11.30;99.90;;;;;;5126574;27;20024;-72
2023/12/13 01:29:32;;;;;;;19.92;12.30;;;11.30;99.90;;;;;;5122527;27;20039;-73
2023/12/13 01:31:58;;;;;;;22.48;12.77;;;11.40;99.90;;;;;;5111906;28;20016;-73
2023/12/13 01:34:24;;;;;;;22.92;13.35;;;11.40;99.90;;;;;;5112035;28;20049;-72
2023/12/13 01:36:50;;;;;;;23.40;13.32;;;11.40;99.90;;;;;;5111414;28;20353;-73
2023/12/13 01:39:16;;;;;;;23.75;12.63;;;11.40;99.90;;;;;;5094048;27;20037;-73
2023/12/13 01:41:43;;;;;;;21.63;13.63;;;11.40;99.90;;;;;;5116716;27;20412;-73
2023/12/13 01:44:10;;;;;;;25.73;15.18;;;11.40;99.90;;;;;;5111479;28;20066;-72
2023/12/13 01:46:37;;;;;;;21.63;14.65;;;11.40;99.90;;;;;;5110655;28;20421;-72
2023/12/13 01:49:06;;;;;;;24.52;14.13;;;11.40;99.90;;;;;;5111184;28;20035;-73
2023/12/13 01:51:36;;;;;;;21.70;12.30;;;11.40;99.90;;;;;;5111998;28;20031;-73
2023/12/13 01:54:06;;;;;;;19.63;11.32;;;11.30;99.90;;;;;;5107759;28;20019;-73
2023/12/13 01:56:33;;;;;;;20.15;10.48;;;11.40;99.90;;;;;;5089231;28;20036;-72
2023/12/13 01:58:59;;;;;;;20.55;10.70;;;11.40;99.90;;;;;;5111274;28;20051;-73
2023/12/13 02:01:25;;;;;;;20.35;11.27;;;11.40;99.90;;;;;;5111424;28;20035;-73
2023/12/13 02:03:51;;;;;;;20.05;11.20;;;11.40;99.90;;;;;;5111361;28;20023;-72
2023/12/13 02:06:17;;;;;;;20.83;10.68;;;11.50;99.90;;;;;;5111244;28;20015;-73
2023/12/13 02:08:42;;;;;;;18.30;10.70;;;11.50;99.90;;;;;;5111275;28;20027;-74
2023/12/13 02:11:09;;;;;;;19.63;11.05;;;11.50;99.90;;;;;;5111368;28;20038;-73
2023/12/13 02:13:35;;;;;;;22.17;10.18;;;11.50;99.90;;;;;;5111338;28;20019;-73
2023/12/13 02:16:01;;;;;;;18.25;10.52;;;11.50;99.90;;;;;;5110977;28;20032;-73
2023/12/13 02:18:27;;;;;;;24.70;11.55;;;11.50;99.90;;;;;;5111872;28;20114;-73
2023/12/13 02:20:53;;;;;;;25.95;10.90;;;11.60;99.90;;;;;;5112893;28;20024;-72
2023/12/13 02:23:19;;;;;;;18.98;11.00;;;11.60;99.90;;;;;;5112958;28;20099;-72
2023/12/13 02:25:54;;;;;;;25.25;10.38;;;11.60;99.90;;;;;;5112708;28;20020;-73
2023/12/13 02:28:20;;;;;;;20.38;9.80;;;11.60;99.90;;;;;;5112584;28;20236;-73
2023/12/13 02:30:48;;;;;;;18.63;9.90;;;11.60;99.90;;;;;;5112756;28;20099;-73
2023/12/13 02:33:14;;;;;;;21.95;10.43;;;11.60;99.90;;;;;;5112193;28;20072;-73
2023/12/13 02:35:40;;;;;;;18.88;9.68;;;11.60;99.90;;;;;;5111996;28;20024;-73
2023/12/13 02:38:06;;;;;;;18.55;10.25;;;11.60;99.90;;;;;;5112505;28;20020;-73
2023/12/13 02:40:32;;;;;;;19.10;9.98;;;11.60;99.90;;;;;;5112673;28;20011;-73
2023/12/13 02:42:58;;;;;;;17.15;9.18;;;11.60;99.90;;;;;;5112417;28;20035;-73
2023/12/13 02:45:24;;;;;;;17.40;9.18;;;11.60;99.90;;;;;;5112427;28;20076;-73
2023/12/13 02:47:52;;;;;;;18.63;10.75;;;11.70;99.90;;;;;;5112031;28;20044;-73
2023/12/13 02:50:19;;;;;;;17.58;9.18;;;11.70;99.90;;;;;;5113457;28;20556;-73
2023/12/13 02:52:45;;;;;;;17.58;8.93;;;11.70;99.90;;;;;;5112522;28;20025;-74
2023/12/13 02:55:11;;;;;;;19.27;8.93;;;11.70;99.90;;;;;;5112163;28;20032;-72
2023/12/13 02:57:39;;;;;;;15.30;8.48;;;11.80;99.90;;;;;;5112344;28;20100;-72
2023/12/13 03:00:06;;;;;;;17.80;10.00;;;11.80;99.90;;;;;;5112168;28;20023;-72
2023/12/13 03:02:32;;;;;;;18.55;9.70;;;11.80;99.90;;;;;;5111976;28;20027;-72
2023/12/13 03:05:01;;;;;;;22.42;11.05;;;11.70;99.90;;;;;;5112332;28;20027;-72
2023/12/13 03:07:28;;;;;;;14.98;8.32;;;11.70;99.90;;;;;;5112135;28;20031;-73
2023/12/13 03:09:54;;;;;;;18.35;10.73;;;11.70;99.90;;;;;;5112417;28;20031;-72
2023/12/13 03:12:20;;;;;;;22.13;12.55;;;11.80;99.90;;;;;;5111956;28;20134;-72
2023/12/13 03:14:46;;;;;;;22.85;13.07;;;11.80;99.90;;;;;;5112316;28;20145;-72
2023/12/13 03:17:12;;;;;;;24.30;15.55;;;11.70;99.90;;;;;;5111696;28;20019;-72
2023/12/13 03:19:38;;;;;;;23.10;14.45;;;11.60;99.90;;;;;;5111924;28;20028;-72
2023/12/13 03:22:05;;;;;;;24.48;14.20;;;11.40;99.90;;;;;;5111730;28;20099;-72
2023/12/13 03:24:30;;;;;;;25.88;17.20;;;11.40;99.90;;;;;;5112174;28;20027;-72
2023/12/13 03:26:56;;;;;;;27.30;17.75;;;11.40;99.90;;;;;;5112063;28;20042;-72
2023/12/13 03:29:22;;;;;;;27.75;17.63;;;11.40;99.90;;;;;;5112125;28;20036;-72
2023/12/13 03:31:48;;;;;;;30.67;18.92;;;11.40;99.90;;;;;;5111899;28;20077;-72
2023/12/13 03:34:14;;;;;;;30.52;17.25;;;11.40;99.90;;;;;;5111656;28;20023;-73
2023/12/13 03:36:41;;;;;;;25.20;13.60;;;11.30;99.90;;;;;;5111953;28;20026;-72
2023/12/13 03:39:10;;;;;;;24.00;13.88;;;11.40;99.90;;;;;;5111814;28;20051;-72
2023/12/13 03:41:35;;;;;;;20.90;11.77;;;11.40;99.90;;;;;;5112088;28;20020;-72
2023/12/13 03:44:01;;;;;;;21.60;9.27;;;11.40;99.90;;;;;;5093801;28;20381;-72
2023/12/13 03:46:27;;;;;;;13.20;7.38;;;11.50;99.90;;;;;;5112453;28;20467;-73
2023/12/13 03:48:53;;;;;;;14.68;7.18;;;11.50;99.90;;;;;;5115368;28;20151;-72
2023/12/13 03:51:20;;;;;;;11.98;6.07;;;11.50;99.90;;;;;;5115859;28;20028;-72
2023/12/13 03:53:46;;;;;;;13.18;6.57;;;11.60;99.90;;;;;;5115394;28;20106;-72
2023/12/13 03:56:12;;;;;;;11.10;5.70;;;11.60;99.90;;;;;;5115685;28;20094;-73
2023/12/13 03:58:38;;;;;;;10.85;6.15;;;11.70;99.90;;;;;;5115446;28;20095;-72
2023/12/13 04:01:04;;;;;;;11.88;6.43;;;11.70;99.90;;;;;;5115182;28;20031;-72
2023/12/13 04:03:32;;;;;;;13.55;7.10;;;11.80;99.90;;;;;;5115487;28;20108;-72
2023/12/13 04:05:58;;;;;;;13.80;6.75;;;11.80;99.90;;;;;;5115493;28;20073;-73
2023/12/13 04:08:24;;;;;;;17.05;7.88;;;11.80;99.90;;;;;;5115124;28;20517;-72
2023/12/13 04:10:50;;;;;;;16.85;8.90;;;11.80;99.90;;;;;;5091966;28;20063;-73
2023/12/13 04:13:15;;;;;;;34.33;13.90;;;11.80;99.90;;;;;;5104045;28;20012;-72
2023/12/13 04:15:42;;;;;;;33.65;14.45;;;11.80;99.90;;;;;;5134801;27;20176;-73
2023/12/13 04:18:08;;;;;;;37.67;22.02;;;11.80;99.90;;;;;;5131582;27;20019;-72
2023/12/13 04:20:34;;;;;;;27.52;15.90;;;11.80;99.90;;;;;;5134884;27;20363;-72
2023/12/13 04:23:00;;;;;;;25.73;14.75;;;11.70;99.90;;;;;;5115761;27;20024;-72
2023/12/13 04:25:26;;;;;;;21.65;13.85;;;11.70;99.90;;;;;;5094850;28;20089;-72
2023/12/13 04:27:52;;;;;;;18.33;9.88;;;11.60;99.90;;;;;;5095206;28;20108;-72
2023/12/13 04:30:17;;;;;;;22.02;11.77;;;11.60;99.90;;;;;;5103663;28;20049;-73
2023/12/13 04:32:43;;;;;;;18.55;10.15;;;11.50;99.90;;;;;;5096046;28;20043;-72
2023/12/13 04:35:09;;;;;;;19.40;9.93;;;11.60;99.90;;;;;;5114625;28;20028;-73
2023/12/13 04:37:36;;;;;;;26.55;11.15;;;11.50;99.90;;;;;;5114750;28;20050;-73
2023/12/13 04:40:03;;;;;;;21.65;12.55;;;11.50;99.90;;;;;;5114730;28;20478;-72
2023/12/13 04:42:29;;;;;;;21.75;11.43;;;11.50;99.90;;;;;;5114797;28;20028;-72
2023/12/13 04:44:55;;;;;;;22.00;11.70;;;11.50;99.90;;;;;;5114949;28;20363;-73
2023/12/13 04:47:21;;;;;;;19.83;11.10;;;11.40;99.90;;;;;;5113975;28;20048;-73
2023/12/13 04:49:47;;;;;;;18.80;10.05;;;11.50;99.90;;;;;;5114324;28;20062;-72
2023/12/13 04:52:12;;;;;;;19.38;9.38;;;11.50;99.90;;;;;;5114383;28;20103;-72
2023/12/13 04:54:38;;;;;;;18.02;10.35;;;11.50;99.90;;;;;;5114170;28;20027;-73
2023/12/13 04:57:05;;;;;;;19.17;10.02;;;11.50;99.90;;;;;;5114257;28;20020;-72
2023/12/13 04:59:31;;;;;;;23.02;12.45;;;11.50;99.90;;;;;;5085400;28;20032;-72
2023/12/13 05:01:57;;;;;;;19.73;10.32;;;11.50;99.90;;;;;;5074813;28;20020;-72
2023/12/13 05:04:23;;;;;;;25.08;13.65;;;11.40;99.90;;;;;;5075475;28;20433;-72
2023/12/13 05:06:49;;;;;;;23.63;13.40;;;11.30;99.90;;;;;;5073660;28;20158;-73
2023/12/13 05:09:15;;;;;;;30.65;17.17;;;11.20;99.90;;;;;;5073315;28;20040;-72
2023/12/13 05:11:41;;;;;;;22.10;13.27;;;11.10;99.90;;;;;;5073755;28;20037;-72
2023/12/13 05:14:07;;;;;;;14.75;9.38;;;11.10;99.90;;;;;;5074450;28;20035;-73
2023/12/13 05:16:33;;;;;;;18.85;10.32;;;11.10;99.90;;;;;;5075578;28;20020;-72
2023/12/13 05:18:59;;;;;;;20.10;10.85;;;11.10;99.90;;;;;;5074223;28;20116;-74
2023/12/13 05:21:26;;;;;;;16.38;10.60;;;11.10;99.90;;;;;;5073220;28;20446;-72
2023/12/13 05:23:52;;;;;;;18.15;10.93;;;11.10;99.90;;;;;;5073343;28;20475;-73
2023/12/13 05:26:18;;;;;;;18.45;10.88;;;11.20;99.90;;;;;;5074348;28;20046;-76
2023/12/13 05:28:44;;;;;;;14.75;8.35;;;11.20;99.90;;;;;;5073311;28;20037;-72
2023/12/13 05:31:23;;;;;;;18.58;9.50;;;11.30;99.90;;;;;;5073090;28;20020;-71
2023/12/13 05:33:49;;;;;;;17.13;8.65;;;11.40;99.90;;;;;;5097688;28;20023;-72
2023/12/13 05:36:15;;;;;;;18.00;9.13;;;11.40;99.90;;;;;;5091436;28;20024;-73
2023/12/13 05:38:43;;;;;;;18.00;11.30;;;11.50;99.90;;;;;;5091359;28;20032;-73
2023/12/13 05:41:09;;;;;;;25.88;16.55;;;11.60;99.90;;;;;;5093419;28;20091;-72
2023/12/13 05:43:35;;;;;;;41.58;28.60;;;11.60;99.90;;;;;;5093579;28;20428;-73
2023/12/13 05:46:04;;;;;;;51.65;36.83;;;11.60;99.90;;;;;;5109059;28;20059;-73
2023/12/13 05:48:31;;;;;;;50.80;35.35;;;11.60;99.90;;;;;;5108017;28;20075;-73
2023/12/13 05:50:58;;;;;;;49.25;30.50;;;11.60;99.90;;;;;;5093354;28;20028;-73
2023/12/13 05:53:24;;;;;;;38.75;25.48;;;11.70;99.90;;;;;;5093123;28;20425;-72
2023/12/13 05:55:50;;;;;;;34.38;17.83;;;11.70;99.90;;;;;;5093000;28;20024;-74
2023/12/13 05:58:16;;;;;;;27.98;17.58;;;11.80;99.90;;;;;;5093803;28;20020;-73
2023/12/13 06:00:42;;;;;;;25.52;17.25;;;11.70;99.90;;;;;;5097554;28;20031;-72
2023/12/13 06:03:09;;;;;;;30.75;16.58;;;11.70;99.90;;;;;;5122981;27;20031;-73
2023/12/13 06:05:35;;;;;;;33.88;14.80;;;11.70;99.90;;;;;;5132819;27;20058;-73
2023/12/13 06:08:01;;;;;;;18.42;10.75;;;11.70;99.90;;;;;;5123774;27;20050;-73
2023/12/13 06:10:27;;;;;;;23.52;10.38;;;11.70;99.90;;;;;;5132383;27;20124;-73
2023/12/13 06:12:53;;;;;;;18.02;10.10;;;11.70;99.90;;;;;;5133655;27;20027;-72
2023/12/13 06:15:21;;;;;;;14.77;7.55;;;11.70;99.90;;;;;;5133049;27;20027;-72
2023/12/13 06:17:48;;;;;;;18.65;8.35;;;11.80;99.90;;;;;;5121765;27;20031;-72
2023/12/13 06:20:14;;;;;;;14.85;8.20;;;11.80;99.90;;;;;;5107838;28;20035;-73
2023/12/13 06:22:40;;;;;;;13.10;7.05;;;11.80;99.90;;;;;;5107864;27;20034;-73
2023/12/13 06:25:06;;;;;;;12.55;6.78;;;11.90;99.90;;;;;;5112699;28;20028;-72
2023/12/13 06:27:33;;;;;;;14.52;6.93;;;11.90;99.90;;;;;;5118118;27;20356;-73
2023/12/13 06:29:58;;;;;;;13.40;6.85;;;12.00;99.90;;;;;;5110959;28;20089;-73
2023/12/13 06:32:24;;;;;;;12.13;6.38;;;12.00;99.90;;;;;;5100679;28;20019;-72
2023/12/13 06:34:50;;;;;;;9.85;5.25;;;12.00;99.90;;;;;;5129850;27;20022;-72
2023/12/13 06:37:16;;;;;;;10.45;5.65;;;12.10;99.90;;;;;;5131410;27;20033;-72
2023/12/13 06:39:42;;;;;;;12.57;6.82;;;12.10;99.90;;;;;;5132901;27;20020;-72
2023/12/13 06:42:08;;;;;;;13.18;6.47;;;12.20;99.90;;;;;;5132592;27;20056;-72
2023/12/13 06:44:36;;;;;;;14.82;6.85;;;12.20;99.90;;;;;;5132813;27;20027;-73
2023/12/13 06:47:03;;;;;;;15.82;6.63;;;12.20;99.90;;;;;;5132446;27;20031;-73
2023/12/13 06:49:31;;;;;;;14.40;6.97;;;12.30;99.90;;;;;;5124152;27;20114;-72
2023/12/13 06:51:57;;;;;;;11.30;6.13;;;12.30;99.90;;;;;;5132660;27;20382;-73
2023/12/13 06:54:23;;;;;;;11.70;5.70;;;12.40;99.90;;;;;;5132241;27;20030;-73
2023/12/13 06:56:49;;;;;;;11.80;6.38;;;12.40;99.90;;;;;;5132928;27;20027;-72
2023/12/13 06:59:15;;;;;;;21.48;7.13;;;12.40;99.90;;;;;;5131819;27;20060;-73
2023/12/13 07:01:41;;;;;;;10.13;5.95;;;12.40;99.90;;;;;;5132551;27;20367;-73
2023/12/13 07:04:07;;;;;;;14.82;8.30;;;12.50;99.90;;;;;;5127933;28;20466;-73
2023/12/13 07:06:33;;;;;;;16.05;8.77;;;12.50;99.90;;;;;;5122759;27;20120;-73
2023/12/13 07:08:59;;;;;;;13.60;6.70;;;12.50;99.90;;;;;;5099262;28;20364;-72
2023/12/13 07:15:19;;;;;;;12.35;7.18;;;12.60;99.90;;;;;;5368986;22;20316;-75
2023/12/13 07:17:45;;;;;;;14.98;6.95;;;12.60;99.90;;;;;;5094669;28;20028;-74
2023/12/13 07:20:12;;;;;;;19.23;9.43;;;12.60;99.90;;;;;;5091400;28;20055;-75
2023/12/13 07:22:38;;;;;;;17.27;9.23;;;12.60;99.90;;;;;;5095945;28;20024;-74
2023/12/13 07:25:06;;;;;;;20.08;11.57;;;12.60;99.90;;;;;;5095639;28;20024;-73
2023/12/13 07:27:33;;;;;;;23.58;13.32;;;12.70;99.90;;;;;;5095860;28;20488;-74
2023/12/13 07:29:59;;;;;;;24.40;13.38;;;12.70;99.90;;;;;;5095705;28;20076;-74
2023/12/13 07:32:25;;;;;;;29.98;15.25;;;12.60;99.90;;;;;;5077490;28;20046;-73
2023/12/13 07:34:51;;;;;;;27.50;13.48;;;12.70;99.90;;;;;;5098088;28;20024;-72
2023/12/13 07:37:18;;;;;;;27.98;13.27;;;12.70;99.90;;;;;;5113732;28;20047;-73
2023/12/13 07:39:43;;;;;;;27.65;12.07;;;12.70;99.90;;;;;;5096835;28;20028;-73
2023/12/13 07:42:10;;;;;;;18.83;10.98;;;12.70;99.90;;;;;;5115608;28;20028;-72
2023/12/13 07:44:35;;;;;;;20.30;11.82;;;12.70;99.90;;;;;;5096749;28;20379;-73
2023/12/13 07:47:02;;;;;;;16.02;9.95;;;12.70;99.90;;;;;;5104213;28;20085;-72
2023/12/13 07:49:28;;;;;;;14.73;8.98;;;12.60;99.90;;;;;;5107361;28;20031;-73
2023/12/13 07:51:55;;;;;;;18.20;10.07;;;12.60;99.90;;;;;;5096305;28;20028;-72
2023/12/13 07:54:22;;;;;;;19.05;13.13;;;12.60;99.90;;;;;;5115243;28;20031;-73
2023/12/13 07:56:50;;;;;;;21.33;13.95;;;12.60;99.90;;;;;;5095077;28;20028;-73
2023/12/13 07:59:16;;;;;;;19.70;11.07;;;12.60;99.90;;;;;;5106309;28;20446;-73
2023/12/13 08:01:42;;;;;;;17.63;9.50;;;12.70;99.90;;;;;;5099200;28;20059;-73
2023/12/13 08:04:08;;;;;;;19.15;10.70;;;12.70;99.90;;;;;;5112951;28;20505;-75
2023/12/13 08:06:34;;;;;;;19.00;11.98;;;12.70;99.90;;;;;;5113715;28;20089;-72
2023/12/13 08:09:01;;;;;;;19.70;12.30;;;12.70;99.90;;;;;;5110324;28;20085;-72
2023/12/13 08:11:27;;;;;;;23.95;13.73;;;12.70;99.90;;;;;;5095969;28;20020;-72
2023/12/13 08:13:53;;;;;;;20.30;11.13;;;12.80;99.90;;;;;;5094760;28;20035;-72
2023/12/13 08:16:19;;;;;;;21.98;13.07;;;12.70;99.90;;;;;;5095508;28;20437;-72
2023/12/13 08:18:45;;;;;;;49.40;31.42;;;12.70;99.90;;;;;;5105926;28;20054;-73
2023/12/13 08:21:11;;;;;;;24.33;15.27;;;12.70;99.90;;;;;;5096704;28;20019;-73
2023/12/13 08:23:37;;;;;;;28.05;17.02;;;12.70;99.90;;;;;;5094854;28;20379;-74
2023/12/13 08:26:03;;;;;;;27.70;15.90;;;12.70;99.90;;;;;;5095489;28;20494;-74
2023/12/13 08:28:29;;;;;;;28.30;16.80;;;12.70;99.90;;;;;;5094443;28;20111;-73
2023/12/13 08:30:55;;;;;;;51.58;27.13;;;12.70;99.90;;;;;;5116024;27;20024;-73
2023/12/13 08:33:20;;;;;;;52.15;25.02;;;12.70;99.90;;;;;;5099719;28;20410;-73
2023/12/13 08:35:46;;;;;;;31.88;19.95;;;12.80;99.90;;;;;;5086895;28;20118;-73
2023/12/13 08:38:12;;;;;;;38.40;24.40;;;12.80;99.90;;;;;;5112561;28;20019;-76
2023/12/13 08:40:39;;;;;;;30.60;18.42;;;12.80;99.90;;;;;;5100546;28;20024;-73
2023/12/13 08:43:04;;;;;;;33.53;20.13;;;12.90;99.90;;;;;;5095522;28;20114;-72
2023/12/13 08:45:31;;;;;;;26.58;14.30;;;12.90;99.90;;;;;;5100776;28;20115;-72
2023/12/13 08:47:56;;;;;;;50.88;17.38;;;12.90;99.90;;;;;;5093023;28;20119;-74
2023/12/13 08:50:22;;;;;;;36.30;19.70;;;12.90;99.90;;;;;;5097897;28;20442;-73
2023/12/13 08:52:48;;;;;;;34.15;18.67;;;12.90;99.90;;;;;;5101206;28;20048;-73
2023/12/13 08:55:14;;;;;;;37.80;18.95;;;12.90;99.90;;;;;;5111158;28;20366;-73
2023/12/13 08:57:40;;;;;;;27.48;15.65;;;12.90;99.90;;;;;;5111932;28;20016;-74
2023/12/13 09:00:08;;;;;;;25.40;13.60;;;12.90;99.90;;;;;;5112479;28;20057;-73
2023/12/13 09:02:34;;;;;;;21.33;14.02;;;12.90;99.90;;;;;;5112199;28;20052;-74
2023/12/13 09:05:00;;;;;;;26.85;15.73;;;12.90;99.90;;;;;;5112342;28;20066;-74
2023/12/13 09:07:26;;;;;;;28.02;16.52;;;12.90;99.90;;;;;;5098827;28;20112;-74
2023/12/13 09:09:52;;;;;;;24.25;14.32;;;12.90;99.90;;;;;;5094833;28;20074;-75
2023/12/13 09:12:18;;;;;;;30.25;19.08;;;13.00;99.90;;;;;;5076584;28;20020;-74
2023/12/13 09:14:44;;;;;;;27.33;18.50;;;13.00;99.90;;;;;;5102890;28;20043;-73
2023/12/13 09:17:09;;;;;;;32.03;18.40;;;13.10;99.90;;;;;;5099385;28;20096;-73
2023/12/13 09:19:35;;;;;;;33.28;20.52;;;13.10;99.90;;;;;;5094645;28;20081;-73
2023/12/13 09:22:03;;;;;;;33.17;20.60;;;13.20;99.90;;;;;;5095664;28;20035;-74
2023/12/13 09:24:30;;;;;;;33.28;19.38;;;13.30;99.90;;;;;;5093475;28;20580;-73
2023/12/13 09:26:56;;;;;;;30.30;17.85;;;13.50;99.90;;;;;;5093725;28;20115;-73
2023/12/13 09:29:22;;;;;;;36.17;20.95;;;13.60;99.90;;;;;;5094247;28;20065;-74
2023/12/13 09:31:47;;;;;;;29.02;18.30;;;13.70;99.90;;;;;;5093476;28;20080;-74
2023/12/13 09:34:14;;;;;;;29.70;17.45;;;13.80;99.90;;;;;;5094250;28;20101;-74
2023/12/13 09:36:40;;;;;;;29.38;18.38;;;13.90;99.90;;;;;;5093971;28;20028;-73
2023/12/13 09:39:06;;;;;;;40.08;25.88;;;13.90;99.90;;;;;;5108488;28;20030;-73
2023/12/13 09:41:46;;;;;;;42.58;27.30;;;14.00;99.90;;;;;;5074824;28;20375;-73
2023/12/13 09:44:14;;;;;;;49.55;24.63;;;14.00;99.90;;;;;;5094122;28;20027;-73
2023/12/13 09:46:41;;;;;;;50.05;28.65;;;14.00;99.90;;;;;;5093569;28;20021;-73
2023/12/13 09:49:07;;;;;;;49.97;31.08;;;14.00;99.90;;;;;;5093033;28;20068;-73
2023/12/13 09:51:34;;;;;;;51.83;30.33;;;14.00;99.90;;;;;;5075476;28;20051;-73
2023/12/13 09:54:04;;;;;;;46.38;24.30;;;14.10;99.90;;;;;;5104869;28;20042;-73
2023/12/13 09:56:30;;;;;;;48.13;25.05;;;14.20;99.90;;;;;;5111858;28;20030;-73
2023/12/13 09:58:56;;;;;;;40.95;25.20;;;14.20;99.90;;;;;;5104382;28;20371;-74
2023/12/13 10:01:22;;;;;;;41.38;23.35;;;14.30;99.90;;;;;;5092834;28;20032;-73
2023/12/13 10:03:48;;;;;;;42.42;23.50;;;14.40;99.90;;;;;;5107581;28;20099;-74
2023/12/13 10:06:15;;;;;;;38.08;21.25;;;14.50;99.90;;;;;;5094834;28;20068;-74
2023/12/13 10:08:41;;;;;;;35.13;22.40;;;14.50;99.90;;;;;;5092405;28;20036;-73
2023/12/13 10:11:07;;;;;;;49.63;24.13;;;14.60;99.90;;;;;;5084716;28;20122;-73
2023/12/13 10:13:34;;;;;;;38.10;24.42;;;14.70;99.90;;;;;;5111130;28;20031;-74
2023/12/13 10:16:28;;;;;;;36.85;22.48;;;14.80;99.90;;;;;;5092052;28;20398;-73
2023/12/13 10:18:55;;;;;;;38.08;21.98;;;14.90;99.90;;;;;;5095418;28;20039;-73
2023/12/13 10:21:21;;;;;;;34.40;22.20;;;15.00;99.90;;;;;;5092364;28;20387;-73
2023/12/13 10:23:47;;;;;;;31.23;20.23;;;15.00;99.90;;;;;;5075060;28;20040;-73
2023/12/13 10:26:13;;;;;;;43.55;20.42;;;15.00;99.90;;;;;;5093099;28;20020;-74
2023/12/13 10:28:39;;;;;;;41.05;25.27;;;15.00;99.90;;;;;;5092963;28;20071;-72
2023/12/13 10:31:05;;;;;;;45.92;27.30;;;15.00;99.90;;;;;;5073776;28;20109;-73
2023/12/13 10:33:31;;;;;;;45.55;26.88;;;15.00;99.90;;;;;;5073621;28;20032;-73
2023/12/13 10:35:59;;;;;;;44.00;24.45;;;15.10;99.90;;;;;;5092243;28;20012;-73
2023/12/13 10:38:26;;;;;;;43.47;23.90;;;15.00;99.90;;;;;;5093202;28;20020;-73
2023/12/13 10:40:53;;;;;;;38.15;23.67;;;15.10;99.90;;;;;;5097288;28;20023;-75
2023/12/13 10:43:20;;;;;;;38.58;23.92;;;15.30;99.90;;;;;;5112127;28;20031;-72
2023/12/13 10:46:00;;;;;;;45.63;24.25;;;15.40;99.90;;;;;;5112332;28;20382;-74
2023/12/13 10:48:35;;;;;;;41.22;20.80;;;15.50;99.90;;;;;;5082904;28;20078;-74
2023/12/13 10:51:02;;;;;;;34.92;20.33;;;15.50;99.90;;;;;;5092016;28;20032;-74
2023/12/13 10:53:32;;;;;;;43.33;23.15;;;15.40;99.90;;;;;;5094742;28;20020;-74
2023/12/13 10:56:02;;;;;;;38.17;20.40;;;15.50;99.90;;;;;;5110180;28;20028;-74
2023/12/13 10:58:28;;;;;;;46.92;23.58;;;15.50;99.90;;;;;;5094002;28;20512;-74
2023/12/13 11:00:56;;;;;;;33.45;20.60;;;15.50;99.90;;;;;;5091761;28;20028;-75
2023/12/13 11:03:37;;;;;;;31.38;19.42;;;15.50;99.90;;;;;;5091356;28;20028;-73
2023/12/13 11:06:11;;;;;;;37.00;20.67;;;15.50;99.90;;;;;;5092106;28;20016;-74
2023/12/13 11:08:39;;;;;;;33.55;21.05;;;15.50;99.90;;;;;;5091478;28;20173;-75
2023/12/13 11:11:10;;;;;;;39.65;21.50;;;15.50;99.90;;;;;;5091634;28;20012;-74
2023/12/13 11:13:57;;;;;;;39.00;23.50;;;15.40;99.90;;;;;;5091248;28;20105;-75
2023/12/13 11:16:24;;;;;;;38.90;22.15;;;15.50;99.90;;;;;;5086388;28;20048;-75
2023/12/13 11:18:52;;;;;;;34.55;24.25;;;15.50;99.90;;;;;;5091683;28;20466;-74
2023/12/13 11:21:30;;;;;;;41.15;23.40;;;15.50;99.90;;;;;;5091082;28;20024;-75
2023/12/13 11:24:14;;;;;;;38.47;22.73;;;15.50;99.90;;;;;;5090967;28;20040;-74
2023/12/13 11:26:49;;;;;;;32.13;18.75;;;15.50;99.90;;;;;;5091983;28;20351;-74
2023/12/13 11:29:16;;;;;;;32.25;18.27;;;15.40;99.90;;;;;;5091500;28;20077;-75
2023/12/13 11:31:58;;;;;;;29.27;16.58;;;15.50;99.90;;;;;;5091504;28;20086;-73
2023/12/13 11:34:34;;;;;;;27.52;15.25;;;15.50;99.90;;;;;;5091448;28;20032;-73
2023/12/13 11:37:02;;;;;;;23.25;14.82;;;15.50;99.90;;;;;;5090734;28;20103;-75
2023/12/13 11:39:30;;;;;;;26.60;15.02;;;15.40;99.90;;;;;;5091170;28;20044;-74
2023/12/13 11:41:58;;;;;;;25.67;16.95;;;15.40;99.90;;;;;;5090994;28;20032;-73
2023/12/13 11:44:29;;;;;;;33.40;19.20;;;15.40;99.90;;;;;;5091252;28;20009;-73
2023/12/13 11:47:00;;;;;;;35.30;21.48;;;15.40;99.90;;;;;;5091123;28;20122;-73
2023/12/13 11:49:26;;;;;;;37.95;24.48;;;15.30;99.90;;;;;;5091194;28;20484;-73
2023/12/13 11:51:53;;;;;;;32.55;17.92;;;15.30;99.90;;;;;;5091592;28;20393;-71
2023/12/13 11:54:20;;;;;;;36.33;20.23;;;15.30;99.90;;;;;;5071808;28;20068;-75
2023/12/13 11:56:46;;;;;;;35.65;19.27;;;15.40;99.90;;;;;;5090871;28;20039;-73
2023/12/13 11:59:12;;;;;;;40.85;23.27;;;15.40;99.90;;;;;;5091181;28;20032;-73
2023/12/13 12:01:38;;;;;;;35.38;20.83;;;15.40;99.90;;;;;;5090604;28;20451;-73
2023/12/13 12:04:04;;;;;;;38.08;19.77;;;15.30;99.90;;;;;;5091436;28;20039;-73
2023/12/13 12:06:30;;;;;;;28.75;17.15;;;15.30;99.90;;;;;;5091304;28;20052;-73
2023/12/13 12:09:00;;;;;;;29.23;15.98;;;15.30;99.90;;;;;;5094608;28;20130;-74
2023/12/13 12:11:27;;;;;;;25.92;13.95;;;15.30;99.90;;;;;;5094809;28;20050;-73
2023/12/13 12:13:55;;;;;;;32.40;17.73;;;15.30;99.90;;;;;;5095232;28;20024;-73
2023/12/13 12:16:21;;;;;;;28.83;15.95;;;15.30;99.90;;;;;;5094348;28;20047;-74
2023/12/13 12:18:47;;;;;;;27.17;14.98;;;15.30;99.90;;;;;;5109879;28;20036;-73
2023/12/13 12:21:13;;;;;;;29.67;16.48;;;15.20;99.90;;;;;;5094477;28;20024;-73
2023/12/13 12:23:43;;;;;;;26.73;16.42;;;15.30;99.90;;;;;;5094936;28;20047;-73
2023/12/13 12:26:13;;;;;;;29.73;17.90;;;15.20;99.90;;;;;;5076212;28;20043;-73
2023/12/13 12:28:41;;;;;;;33.97;19.30;;;15.20;99.90;;;;;;5094573;28;20040;-74
2023/12/13 12:31:10;;;;;;;41.47;19.65;;;15.20;99.90;;;;;;5094326;28;20061;-73